TimeCDT,TemperatureF,Dew PointF,Humidity,Sea Level PressureIn,VisibilityMPH,Wind Direction,Wind SpeedMPH,Gust SpeedMPH,PrecipitationIn,Events,Conditions,WindDirDegrees,DateUTC
12:53 AM,39.9,25.0,55,30.20,10.0,South,5.8,-,N/A,,Clear,170,2012-10-28 05:53:00
1:53 AM,37.0,24.1,59,30.20,10.0,SSE,5.8,-,N/A,,Clear,160,2012-10-28 06:53:00
2:53 AM,37.0,24.1,59,30.18,10.0,South,5.8,-,N/A,,Partly Cloudy,180,2012-10-28 07:53:00
3:53 AM,36.0,24.1,62,30.19,10.0,South,5.8,-,N/A,,Scattered Clouds,190,2012-10-28 08:53:00
4:53 AM,34.0,24.1,67,30.20,10.0,Calm,Calm,-,N/A,,Mostly Cloudy,0,2012-10-28 09:53:00
5:53 AM,33.1,24.1,70,30.21,10.0,ESE,3.5,-,N/A,,Scattered Clouds,110,2012-10-28 10:53:00
6:53 AM,30.0,21.9,72,30.22,10.0,Calm,Calm,-,N/A,,Scattered Clouds,0,2012-10-28 11:53:00
7:53 AM,30.0,21.9,72,30.24,10.0,WNW,3.5,-,N/A,,Mostly Cloudy,290,2012-10-28 12:53:00
8:53 AM,36.0,24.1,62,30.24,10.0,Calm,Calm,-,N/A,,Mostly Cloudy,0,2012-10-28 13:53:00
9:53 AM,42.1,25.0,51,30.23,10.0,SW,3.5,-,N/A,,Mostly Cloudy,220,2012-10-28 14:53:00
10:53 AM,50.0,25.0,38,30.22,10.0,SSW,6.9,-,N/A,,Mostly Cloudy,200,2012-10-28 15:53:00
11:53 AM,53.6,24.8,33,30.25,10.0,SSW,6.9,-,N/A,,Mostly Cloudy,210,2012-10-28 16:53:00
12:53 PM,57.0,24.1,28,30.20,10.0,South,10.4,-,N/A,,Scattered Clouds,190,2012-10-28 17:53:00
1:53 PM,59.0,24.1,26,30.17,10.0,South,11.5,20.7,N/A,,Scattered Clouds,190,2012-10-28 18:53:00
2:53 PM,61.0,24.1,24,30.13,10.0,SSW,15.0,20.7,N/A,,Mostly Cloudy,200,2012-10-28 19:53:00
3:53 PM,62.1,24.1,23,30.10,10.0,South,12.7,-,N/A,,Mostly Cloudy,190,2012-10-28 20:53:00
4:53 PM,61.0,23.0,23,30.09,10.0,South,12.7,-,N/A,,Mostly Cloudy,180,2012-10-28 21:53:00
5:53 PM,61.0,21.9,22,30.09,10.0,SSE,12.7,-,N/A,,Scattered Clouds,160,2012-10-28 22:53:00
6:53 PM,57.9,21.9,25,30.11,10.0,SSE,9.2,-,N/A,,Scattered Clouds,160,2012-10-28 23:53:00
7:53 PM,52.0,26.1,37,30.13,10.0,SSE,10.4,-,N/A,,Partly Cloudy,160,2012-10-29 00:53:00
8:53 PM,50.0,26.1,39,30.15,10.0,SE,8.1,-,N/A,,Partly Cloudy,130,2012-10-29 01:53:00
9:53 PM,46.9,26.1,44,30.15,10.0,SE,9.2,-,N/A,,Partly Cloudy,140,2012-10-29 02:53:00
10:53 PM,46.0,26.1,46,30.15,10.0,ESE,8.1,-,N/A,,Partly Cloudy,120,2012-10-29 03:53:00
11:53 PM,43.0,26.1,51,30.15,10.0,SE,9.2,-,N/A,,Clear,140,2012-10-29 04:53:00